MST,Max TemperatureF,Mean TemperatureF,Min TemperatureF,Max Dew PointF,MeanDew PointF,Min DewpointF,Max Humidity, Mean Humidity, Min Humidity, Max Sea Level PressureIn, Mean Sea Level PressureIn, Min Sea Level PressureIn, Max VisibilityMiles, Mean VisibilityMiles, Min VisibilityMiles, Max Wind SpeedMPH, Mean Wind SpeedMPH, Max Gust SpeedMPH,PrecipitationIn, CloudCover, Events, WindDirDegrees
2014-1-1,67,54,40,31,25,21,57,37,18,30.13,30.08,30.01,10,10,10,13,7,,0.00,0,,132
2014-1-2,73,57,41,28,24,22,58,31,14,30.16,30.07,30.00,10,10,10,21,9,22,0.00,0,,116
2014-1-3,72,60,46,31,26,23,53,31,17,30.01,29.94,29.84,10,10,10,16,10,,0.00,0,,141
2014-1-4,65,54,44,31,27,22,55,38,19,30.00,29.94,29.89,10,10,10,10,6,,0.00,0,,140
2014-1-5,61,49,37,30,28,22,73,49,22,30.15,30.08,29.99,10,10,10,9,6,,0.00,0,,239
2014-1-6,65,50,35,27,11,5,63,25,9,30.23,30.15,30.08,10,10,10,10,5,,0.00,0,,98
2014-1-7,68,56,45,22,10,3,31,17,9,30.13,30.05,29.96,10,10,10,18,11,,0.00,1,,121
2014-1-8,65,54,42,24,21,17,46,32,16,30.11,30.04,29.97,10,10,10,10,4,,0.00,0,,134
2014-1-9,63,52,40,26,22,19,48,36,18,30.09,30.03,29.96,10,10,10,13,7,,0.00,0,,133
2014-1-10,63,50,37,25,22,20,54,38,19,30.13,30.06,30.00,10,10,10,12,6,,0.00,0,,174
2014-1-11,68,54,39,29,25,22,53,37,19,30.17,30.09,30.01,10,10,10,12,5,,0.00,0,,144
2014-1-12,68,54,40,29,27,24,53,37,22,30.16,30.03,29.96,10,10,10,13,7,,0.00,0,,310
2014-1-13,65,52,39,29,22,14,63,38,14,30.31,30.23,30.16,10,10,10,12,6,,0.00,0,,204
2014-1-14,65,50,36,23,19,15,45,32,16,30.31,30.25,30.19,10,10,10,12,6,,0.00,0,,139
2014-1-15,70,54,38,23,17,11,45,28,10,30.31,30.21,30.13,10,10,2,9,4,,0.00,0,,356
2014-1-16,70,54,38,24,19,15,42,29,12,30.16,30.09,30.00,10,10,10,13,7,,0.00,0,,158
2014-1-17,73,56,39,20,16,6,45,25,7,30.15,30.07,30.01,10,10,10,9,6,,0.00,0,,55
2014-1-18,73,56,39,21,15,9,35,22,8,30.15,30.08,30.00,10,6,2,12,6,,0.00,0,,153
2014-1-19,75,60,44,23,15,11,31,21,8,30.16,30.10,30.02,10,10,9,17,8,25,0.00,0,,146
2014-1-20,74,58,41,22,17,14,36,26,10,30.19,30.12,30.05,10,10,9,10,7,,0.00,1,,157
2014-1-21,75,60,45,17,14,10,32,18,8,30.19,30.10,30.01,10,10,10,21,10,32,0.00,0,,112
2014-1-22,73,60,47,22,18,14,36,21,12,29.98,29.91,29.80,10,10,10,12,6,,0.00,1,,146
2014-1-23,70,56,42,24,21,17,45,28,13,30.17,29.98,29.87,10,10,10,9,6,,0.00,0,,117
2014-1-24,64,58,51,21,19,17,27,22,17,30.27,30.20,30.13,10,10,10,24,14,31,0.00,2,,108
2014-1-25,71,64,52,47,34,21,50,36,23,30.19,30.11,30.03,10,10,10,13,8,,0.00,3,,131
2014-1-26,69,56,44,34,30,26,64,40,20,30.07,30.00,29.92,10,10,10,8,6,,0.00,0,,208
2014-1-27,68,58,48,32,28,23,49,34,21,30.00,29.95,29.89,10,10,10,15,5,,0.00,2,,182
2014-1-28,69,54,40,28,25,18,55,36,14,30.11,30.02,29.94,10,10,10,12,6,,0.00,0,,154
2014-1-29,71,56,40,24,20,12,47,29,10,30.06,29.99,29.92,10,10,10,12,7,,0.00,0,,144
2014-1-30,78,62,46,26,20,16,31,21,11,29.93,29.85,29.77,10,10,10,14,6,23,0.00,0,,165
2014-1-31,71,64,56,42,30,21,59,30,19,29.88,29.77,29.72,10,10,10,20,7,28,0.00,5,,252